sensor_id;sensor_type;location;lat;lon;timestamp;P1;durP1;ratioP1;P2;durP2;ratioP2
56319;SDS011;42226;42.382;23.748;2023-10-31T00:00:55;12.30;;;9.68;;
56319;SDS011;42226;42.382;23.748;2023-10-31T00:11:41;14.07;;;10.43;;
56319;SDS011;42226;42.382;23.748;2023-10-31T00:17:18;13.32;;;9.98;;
56319;SDS011;42226;42.382;23.748;2023-10-31T00:19:53;11.70;;;10.50;;
56319;SDS011;42226;42.382;23.748;2023-10-31T00:22:22;12.67;;;10.97;;
56319;SDS011;42226;42.382;23.748;2023-10-31T00:24:50;17.15;;;11.27;;
56319;SDS011;42226;42.382;23.748;2023-10-31T00:27:25;12.77;;;11.02;;
56319;SDS011;42226;42.382;23.748;2023-10-31T00:29:59;16.88;;;11.40;;
56319;SDS011;42226;42.382;23.748;2023-10-31T00:35:13;15.65;;;11.13;;
56319;SDS011;42226;42.382;23.748;2023-10-31T00:37:53;15.93;;;10.48;;
56319;SDS011;42226;42.382;23.748;2023-10-31T00:40:27;16.00;;;10.80;;
56319;SDS011;42226;42.382;23.748;2023-10-31T00:43:13;15.05;;;11.45;;
56319;SDS011;42226;42.382;23.748;2023-10-31T00:48:21;15.20;;;10.73;;
56319;SDS011;42226;42.382;23.748;2023-10-31T00:50:49;15.00;;;10.73;;
56319;SDS011;42226;42.382;23.748;2023-10-31T00:53:22;15.07;;;9.95;;
56319;SDS011;42226;42.382;23.748;2023-10-31T00:55:50;18.48;;;10.95;;
56319;SDS011;42226;42.382;23.748;2023-10-31T00:58:24;12.07;;;10.35;;
56319;SDS011;42226;42.382;23.748;2023-10-31T01:07:16;15.55;;;10.75;;
56319;SDS011;42226;42.382;23.748;2023-10-31T01:09:44;15.45;;;11.40;;
56319;SDS011;42226;42.382;23.748;2023-10-31T01:12:25;19.60;;;11.38;;
56319;SDS011;42226;42.382;23.748;2023-10-31T01:14:59;14.00;;;11.55;;
56319;SDS011;42226;42.382;23.748;2023-10-31T01:17:27;14.75;;;11.13;;
56319;SDS011;42226;42.382;23.748;2023-10-31T01:19:57;13.75;;;11.45;;
56319;SDS011;42226;42.382;23.748;2023-10-31T01:22:25;15.48;;;12.27;;
56319;SDS011;42226;42.382;23.748;2023-10-31T01:25:10;14.30;;;11.95;;
56319;SDS011;42226;42.382;23.748;2023-10-31T01:30:12;15.13;;;12.55;;
56319;SDS011;42226;42.382;23.748;2023-10-31T01:32:40;17.70;;;12.90;;
56319;SDS011;42226;42.382;23.748;2023-10-31T01:35:16;15.77;;;12.27;;
56319;SDS011;42226;42.382;23.748;2023-10-31T01:37:52;17.92;;;13.63;;
56319;SDS011;42226;42.382;23.748;2023-10-31T01:46:03;13.82;;;12.38;;
56319;SDS011;42226;42.382;23.748;2023-10-31T01:48:33;15.75;;;11.98;;
56319;SDS011;42226;42.382;23.748;2023-10-31T01:51:02;18.08;;;11.70;;
56319;SDS011;42226;42.382;23.748;2023-10-31T01:53:31;21.75;;;13.25;;
56319;SDS011;42226;42.382;23.748;2023-10-31T01:56:06;24.58;;;13.85;;
56319;SDS011;42226;42.382;23.748;2023-10-31T01:58:35;18.67;;;10.53;;
56319;SDS011;42226;42.382;23.748;2023-10-31T02:01:06;23.08;;;15.02;;
56319;SDS011;42226;42.382;23.748;2023-10-31T02:03:34;19.67;;;13.45;;
56319;SDS011;42226;42.382;23.748;2023-10-31T02:06:16;17.75;;;13.45;;
56319;SDS011;42226;42.382;23.748;2023-10-31T02:11:18;15.57;;;10.90;;
56319;SDS011;42226;42.382;23.748;2023-10-31T02:13:46;17.98;;;14.65;;
56319;SDS011;42226;42.382;23.748;2023-10-31T02:16:14;14.85;;;13.00;;
56319;SDS011;42226;42.382;23.748;2023-10-31T02:18:56;22.27;;;14.75;;
56319;SDS011;42226;42.382;23.748;2023-10-31T02:21:31;19.27;;;14.30;;
56319;SDS011;42226;42.382;23.748;2023-10-31T02:24:07;18.23;;;14.23;;
56319;SDS011;42226;42.382;23.748;2023-10-31T02:26:42;16.98;;;11.98;;
56319;SDS011;42226;42.382;23.748;2023-10-31T02:29:10;16.73;;;14.00;;
56319;SDS011;42226;42.382;23.748;2023-10-31T02:31:39;21.02;;;14.15;;
56319;SDS011;42226;42.382;23.748;2023-10-31T02:39:26;17.10;;;14.30;;
56319;SDS011;42226;42.382;23.748;2023-10-31T02:44:28;16.25;;;12.88;;
56319;SDS011;42226;42.382;23.748;2023-10-31T02:49:31;15.20;;;12.95;;
56319;SDS011;42226;42.382;23.748;2023-10-31T02:54:32;15.68;;;13.40;;
56319;SDS011;42226;42.382;23.748;2023-10-31T02:59:39;17.80;;;14.25;;
56319;SDS011;42226;42.382;23.748;2023-10-31T03:02:11;15.45;;;12.57;;
56319;SDS011;42226;42.382;23.748;2023-10-31T03:07:26;15.82;;;14.02;;
56319;SDS011;42226;42.382;23.748;2023-10-31T03:10:05;15.27;;;12.90;;
56319;SDS011;42226;42.382;23.748;2023-10-31T03:12:33;21.92;;;14.68;;
56319;SDS011;42226;42.382;23.748;2023-10-31T03:15:02;20.02;;;14.38;;
56319;SDS011;42226;42.382;23.748;2023-10-31T03:17:31;15.40;;;13.35;;
56319;SDS011;42226;42.382;23.748;2023-10-31T03:25:18;15.73;;;13.73;;
56319;SDS011;42226;42.382;23.748;2023-10-31T03:27:58;14.50;;;10.38;;
56319;SDS011;42226;42.382;23.748;2023-10-31T03:30:33;18.20;;;13.90;;
56319;SDS011;42226;42.382;23.748;2023-10-31T03:33:01;22.23;;;15.13;;
56319;SDS011;42226;42.382;23.748;2023-10-31T03:35:37;17.75;;;12.15;;
56319;SDS011;42226;42.382;23.748;2023-10-31T03:38:06;20.15;;;14.43;;
56319;SDS011;42226;42.382;23.748;2023-10-31T03:45:40;14.40;;;11.45;;
56319;SDS011;42226;42.382;23.748;2023-10-31T03:48:07;15.10;;;13.15;;
56319;SDS011;42226;42.382;23.748;2023-10-31T03:53:19;16.73;;;13.65;;
56319;SDS011;42226;42.382;23.748;2023-10-31T03:55:55;18.48;;;12.75;;
56319;SDS011;42226;42.382;23.748;2023-10-31T03:58:28;20.55;;;14.93;;
56319;SDS011;42226;42.382;23.748;2023-10-31T04:03:52;12.77;;;10.90;;
56319;SDS011;42226;42.382;23.748;2023-10-31T04:09:09;14.00;;;10.43;;
56319;SDS011;42226;42.382;23.748;2023-10-31T04:11:37;15.45;;;11.98;;
56319;SDS011;42226;42.382;23.748;2023-10-31T04:14:11;15.20;;;10.90;;
56319;SDS011;42226;42.382;23.748;2023-10-31T04:16:39;12.52;;;9.05;;
56319;SDS011;42226;42.382;23.748;2023-10-31T04:19:24;14.98;;;10.65;;
56319;SDS011;42226;42.382;23.748;2023-10-31T04:22:04;13.27;;;9.35;;
56319;SDS011;42226;42.382;23.748;2023-10-31T04:24:31;13.90;;;9.85;;
56319;SDS011;42226;42.382;23.748;2023-10-31T04:27:01;13.88;;;10.35;;
56319;SDS011;42226;42.382;23.748;2023-10-31T04:29:36;11.85;;;8.40;;
56319;SDS011;42226;42.382;23.748;2023-10-31T04:32:12;11.07;;;9.48;;
56319;SDS011;42226;42.382;23.748;2023-10-31T04:34:40;13.55;;;10.38;;
56319;SDS011;42226;42.382;23.748;2023-10-31T04:37:09;10.18;;;9.10;;
56319;SDS011;42226;42.382;23.748;2023-10-31T04:39:44;14.98;;;10.45;;
56319;SDS011;42226;42.382;23.748;2023-10-31T04:42:14;8.48;;;7.60;;
56319;SDS011;42226;42.382;23.748;2023-10-31T04:44:43;9.10;;;6.50;;
56319;SDS011;42226;42.382;23.748;2023-10-31T04:47:11;6.80;;;6.20;;
56319;SDS011;42226;42.382;23.748;2023-10-31T04:49:40;9.15;;;6.80;;
56319;SDS011;42226;42.382;23.748;2023-10-31T04:54:39;9.63;;;7.05;;
56319;SDS011;42226;42.382;23.748;2023-10-31T04:57:07;8.18;;;6.65;;
56319;SDS011;42226;42.382;23.748;2023-10-31T04:59:49;12.63;;;7.93;;
56319;SDS011;42226;42.382;23.748;2023-10-31T05:02:26;7.15;;;6.43;;
56319;SDS011;42226;42.382;23.748;2023-10-31T05:05:02;7.75;;;6.20;;
56319;SDS011;42226;42.382;23.748;2023-10-31T05:10:17;7.45;;;5.80;;
56319;SDS011;42226;42.382;23.748;2023-10-31T05:15:24;6.68;;;5.80;;
56319;SDS011;42226;42.382;23.748;2023-10-31T05:17:52;8.90;;;5.57;;
56319;SDS011;42226;42.382;23.748;2023-10-31T05:20:22;8.10;;;6.25;;
56319;SDS011;42226;42.382;23.748;2023-10-31T05:25:28;6.40;;;5.80;;
56319;SDS011;42226;42.382;23.748;2023-10-31T05:27:56;10.85;;;6.55;;
56319;SDS011;42226;42.382;23.748;2023-10-31T05:30:33;6.88;;;6.18;;
56319;SDS011;42226;42.382;23.748;2023-10-31T05:33:08;7.93;;;6.50;;
56319;SDS011;42226;42.382;23.748;2023-10-31T05:35:37;7.53;;;5.95;;
56319;SDS011;42226;42.382;23.748;2023-10-31T05:40:55;6.05;;;5.55;;
56319;SDS011;42226;42.382;23.748;2023-10-31T05:43:25;7.03;;;6.30;;
56319;SDS011;42226;42.382;23.748;2023-10-31T05:45:53;7.15;;;6.35;;
56319;SDS011;42226;42.382;23.748;2023-10-31T05:48:22;10.38;;;6.40;;
56319;SDS011;42226;42.382;23.748;2023-10-31T05:53:54;6.28;;;5.68;;
56319;SDS011;42226;42.382;23.748;2023-10-31T05:59:02;7.72;;;6.35;;
56319;SDS011;42226;42.382;23.748;2023-10-31T06:01:35;12.43;;;7.15;;
56319;SDS011;42226;42.382;23.748;2023-10-31T06:04:04;8.13;;;5.85;;
56319;SDS011;42226;42.382;23.748;2023-10-31T06:06:33;6.90;;;5.90;;
56319;SDS011;42226;42.382;23.748;2023-10-31T06:11:55;7.88;;;6.18;;
56319;SDS011;42226;42.382;23.748;2023-10-31T06:16:55;14.50;;;6.43;;
56319;SDS011;42226;42.382;23.748;2023-10-31T06:22:16;7.15;;;6.38;;
56319;SDS011;42226;42.382;23.748;2023-10-31T06:24:45;7.20;;;6.13;;
56319;SDS011;42226;42.382;23.748;2023-10-31T06:32:27;7.28;;;6.07;;
56319;SDS011;42226;42.382;23.748;2023-10-31T06:34:56;11.25;;;6.53;;
56319;SDS011;42226;42.382;23.748;2023-10-31T06:37:26;9.52;;;6.00;;
56319;SDS011;42226;42.382;23.748;2023-10-31T06:40:09;7.38;;;5.80;;
56319;SDS011;42226;42.382;23.748;2023-10-31T06:45:32;9.70;;;5.63;;
56319;SDS011;42226;42.382;23.748;2023-10-31T06:48:00;6.25;;;5.25;;
56319;SDS011;42226;42.382;23.748;2023-10-31T06:50:41;6.85;;;5.35;;
56319;SDS011;42226;42.382;23.748;2023-10-31T06:55:41;7.45;;;5.60;;
56319;SDS011;42226;42.382;23.748;2023-10-31T07:00:49;7.10;;;5.70;;
56319;SDS011;42226;42.382;23.748;2023-10-31T07:03:19;6.20;;;5.32;;
56319;SDS011;42226;42.382;23.748;2023-10-31T07:05:47;8.35;;;6.00;;
56319;SDS011;42226;42.382;23.748;2023-10-31T07:10:47;8.02;;;6.30;;
56319;SDS011;42226;42.382;23.748;2023-10-31T07:15:58;6.95;;;6.25;;
56319;SDS011;42226;42.382;23.748;2023-10-31T07:18:26;7.40;;;6.70;;
56319;SDS011;42226;42.382;23.748;2023-10-31T07:20:55;8.18;;;6.65;;
56319;SDS011;42226;42.382;23.748;2023-10-31T07:23:29;6.35;;;5.70;;
56319;SDS011;42226;42.382;23.748;2023-10-31T07:25:59;7.57;;;6.30;;
56319;SDS011;42226;42.382;23.748;2023-10-31T07:28:34;6.22;;;5.60;;
56319;SDS011;42226;42.382;23.748;2023-10-31T07:31:02;6.63;;;5.97;;
56319;SDS011;42226;42.382;23.748;2023-10-31T07:33:39;10.23;;;5.57;;
56319;SDS011;42226;42.382;23.748;2023-10-31T07:38:50;6.18;;;5.57;;
56319;SDS011;42226;42.382;23.748;2023-10-31T07:41:33;6.05;;;5.05;;
56319;SDS011;42226;42.382;23.748;2023-10-31T07:44:02;6.22;;;5.15;;
56319;SDS011;42226;42.382;23.748;2023-10-31T07:46:38;7.35;;;4.82;;
56319;SDS011;42226;42.382;23.748;2023-10-31T07:51:51;6.93;;;4.90;;
56319;SDS011;42226;42.382;23.748;2023-10-31T07:54:20;6.47;;;5.38;;
56319;SDS011;42226;42.382;23.748;2023-10-31T07:59:57;6.05;;;4.75;;
56319;SDS011;42226;42.382;23.748;2023-10-31T08:02:33;6.63;;;4.53;;
56319;SDS011;42226;42.382;23.748;2023-10-31T08:05:01;4.93;;;4.43;;
56319;SDS011;42226;42.382;23.748;2023-10-31T08:07:42;5.47;;;4.70;;
56319;SDS011;42226;42.382;23.748;2023-10-31T08:10:18;6.30;;;5.50;;
56319;SDS011;42226;42.382;23.748;2023-10-31T08:15:48;12.27;;;6.28;;
56319;SDS011;42226;42.382;23.748;2023-10-31T08:18:19;8.85;;;6.40;;
56319;SDS011;42226;42.382;23.748;2023-10-31T08:20:50;7.32;;;5.50;;
56319;SDS011;42226;42.382;23.748;2023-10-31T08:23:25;8.20;;;5.32;;
56319;SDS011;42226;42.382;23.748;2023-10-31T08:25:54;6.97;;;5.07;;
56319;SDS011;42226;42.382;23.748;2023-10-31T08:31:30;8.65;;;5.38;;
56319;SDS011;42226;42.382;23.748;2023-10-31T08:34:07;8.82;;;5.45;;
56319;SDS011;42226;42.382;23.748;2023-10-31T08:36:43;5.80;;;4.80;;
56319;SDS011;42226;42.382;23.748;2023-10-31T08:39:11;7.05;;;5.32;;
56319;SDS011;42226;42.382;23.748;2023-10-31T08:44:27;6.88;;;5.10;;
56319;SDS011;42226;42.382;23.748;2023-10-31T08:49:46;6.47;;;5.10;;
56319;SDS011;42226;42.382;23.748;2023-10-31T08:52:30;7.55;;;4.95;;
56319;SDS011;42226;42.382;23.748;2023-10-31T08:54:58;6.40;;;5.20;;
56319;SDS011;42226;42.382;23.748;2023-10-31T09:00:08;6.93;;;4.90;;
56319;SDS011;42226;42.382;23.748;2023-10-31T09:02:38;6.95;;;4.82;;
56319;SDS011;42226;42.382;23.748;2023-10-31T09:10:16;6.78;;;4.80;;
56319;SDS011;42226;42.382;23.748;2023-10-31T09:12:45;6.38;;;4.57;;
56319;SDS011;42226;42.382;23.748;2023-10-31T09:15:15;5.28;;;4.60;;
56319;SDS011;42226;42.382;23.748;2023-10-31T09:17:45;5.50;;;4.78;;
56319;SDS011;42226;42.382;23.748;2023-10-31T09:20:25;7.75;;;5.15;;
56319;SDS011;42226;42.382;23.748;2023-10-31T09:25:39;6.60;;;4.47;;
56319;SDS011;42226;42.382;23.748;2023-10-31T09:28:06;6.60;;;4.63;;
56319;SDS011;42226;42.382;23.748;2023-10-31T09:30:36;6.57;;;4.70;;
56319;SDS011;42226;42.382;23.748;2023-10-31T09:33:03;5.00;;;4.60;;
56319;SDS011;42226;42.382;23.748;2023-10-31T09:35:37;6.97;;;4.75;;
56319;SDS011;42226;42.382;23.748;2023-10-31T09:41:11;7.00;;;4.80;;
56319;SDS011;42226;42.382;23.748;2023-10-31T09:43:46;5.95;;;4.50;;
56319;SDS011;42226;42.382;23.748;2023-10-31T09:49:25;6.22;;;4.57;;
56319;SDS011;42226;42.382;23.748;2023-10-31T09:55:26;7.45;;;4.40;;
56319;SDS011;42226;42.382;23.748;2023-10-31T09:58:02;5.57;;;4.55;;
56319;SDS011;42226;42.382;23.748;2023-10-31T10:00:38;5.72;;;4.13;;
56319;SDS011;42226;42.382;23.748;2023-10-31T10:03:11;5.93;;;4.50;;
56319;SDS011;42226;42.382;23.748;2023-10-31T10:05:45;7.13;;;4.32;;
56319;SDS011;42226;42.382;23.748;2023-10-31T10:08:14;6.65;;;4.57;;
56319;SDS011;42226;42.382;23.748;2023-10-31T10:10:48;6.22;;;4.55;;
56319;SDS011;42226;42.382;23.748;2023-10-31T10:13:26;6.30;;;4.55;;
56319;SDS011;42226;42.382;23.748;2023-10-31T10:16:04;6.85;;;4.10;;
56319;SDS011;42226;42.382;23.748;2023-10-31T10:24:51;5.47;;;4.55;;
56319;SDS011;42226;42.382;23.748;2023-10-31T10:27:22;7.38;;;4.35;;
56319;SDS011;42226;42.382;23.748;2023-10-31T10:32:31;5.88;;;4.30;;
56319;SDS011;42226;42.382;23.748;2023-10-31T10:35:00;8.35;;;4.32;;
56319;SDS011;42226;42.382;23.748;2023-10-31T10:37:28;5.75;;;4.47;;
56319;SDS011;42226;42.382;23.748;2023-10-31T10:40:05;6.68;;;4.57;;
56319;SDS011;42226;42.382;23.748;2023-10-31T10:45:29;6.65;;;4.60;;
56319;SDS011;42226;42.382;23.748;2023-10-31T10:59:27;5.03;;;4.50;;
56319;SDS011;42226;42.382;23.748;2023-10-31T11:07:55;8.50;;;5.20;;
56319;SDS011;42226;42.382;23.748;2023-10-31T11:10:37;6.63;;;5.00;;
56319;SDS011;42226;42.382;23.748;2023-10-31T11:13:13;6.68;;;4.93;;
56319;SDS011;42226;42.382;23.748;2023-10-31T11:15:53;8.32;;;4.85;;
56319;SDS011;42226;42.382;23.748;2023-10-31T11:18:40;7.18;;;4.85;;
56319;SDS011;42226;42.382;23.748;2023-10-31T11:21:31;6.68;;;4.57;;
56319;SDS011;42226;42.382;23.748;2023-10-31T11:24:33;6.10;;;4.80;;
56319;SDS011;42226;42.382;23.748;2023-10-31T11:27:14;7.43;;;4.60;;
56319;SDS011;42226;42.382;23.748;2023-10-31T11:32:23;7.50;;;4.70;;
56319;SDS011;42226;42.382;23.748;2023-10-31T11:35:00;5.65;;;4.10;;
56319;SDS011;42226;42.382;23.748;2023-10-31T11:37:39;4.60;;;4.20;;
56319;SDS011;42226;42.382;23.748;2023-10-31T11:43:50;6.13;;;4.57;;
56319;SDS011;42226;42.382;23.748;2023-10-31T11:46:20;7.05;;;5.30;;
56319;SDS011;42226;42.382;23.748;2023-10-31T11:48:55;6.18;;;4.50;;
56319;SDS011;42226;42.382;23.748;2023-10-31T11:51:32;5.68;;;4.70;;
56319;SDS011;42226;42.382;23.748;2023-10-31T11:54:09;7.15;;;4.85;;
56319;SDS011;42226;42.382;23.748;2023-10-31T11:56:55;9.20;;;4.82;;
56319;SDS011;42226;42.382;23.748;2023-10-31T12:02:27;5.32;;;4.57;;
56319;SDS011;42226;42.382;23.748;2023-10-31T12:08:00;6.70;;;5.00;;
56319;SDS011;42226;42.382;23.748;2023-10-31T12:13:28;5.32;;;4.40;;
56319;SDS011;42226;42.382;23.748;2023-10-31T12:15:56;5.07;;;4.57;;
56319;SDS011;42226;42.382;23.748;2023-10-31T12:18:27;5.53;;;4.80;;
56319;SDS011;42226;42.382;23.748;2023-10-31T12:21:01;10.20;;;5.53;;
56319;SDS011;42226;42.382;23.748;2023-10-31T12:26:28;7.60;;;4.80;;
56319;SDS011;42226;42.382;23.748;2023-10-31T12:31:59;6.03;;;5.20;;
56319;SDS011;42226;42.382;23.748;2023-10-31T12:34:42;8.20;;;5.20;;
56319;SDS011;42226;42.382;23.748;2023-10-31T12:37:12;7.25;;;5.30;;
56319;SDS011;42226;42.382;23.748;2023-10-31T12:42:20;7.25;;;5.30;;
56319;SDS011;42226;42.382;23.748;2023-10-31T12:44:54;7.15;;;5.38;;
56319;SDS011;42226;42.382;23.748;2023-10-31T12:47:35;7.05;;;5.80;;
56319;SDS011;42226;42.382;23.748;2023-10-31T12:52:57;8.25;;;5.97;;
56319;SDS011;42226;42.382;23.748;2023-10-31T12:55:27;9.13;;;5.10;;
56319;SDS011;42226;42.382;23.748;2023-10-31T13:00:59;8.80;;;5.45;;
56319;SDS011;42226;42.382;23.748;2023-10-31T13:03:27;7.70;;;5.13;;
56319;SDS011;42226;42.382;23.748;2023-10-31T13:08:56;5.43;;;4.50;;
56319;SDS011;42226;42.382;23.748;2023-10-31T13:17:07;7.03;;;4.75;;
56319;SDS011;42226;42.382;23.748;2023-10-31T13:22:10;6.45;;;4.88;;
56319;SDS011;42226;42.382;23.748;2023-10-31T13:24:40;8.48;;;4.63;;
56319;SDS011;42226;42.382;23.748;2023-10-31T13:27:18;7.35;;;4.90;;
56319;SDS011;42226;42.382;23.748;2023-10-31T13:32:33;6.93;;;4.75;;
56319;SDS011;42226;42.382;23.748;2023-10-31T13:35:08;6.40;;;4.72;;
56319;SDS011;42226;42.382;23.748;2023-10-31T13:37:36;8.25;;;4.53;;
56319;SDS011;42226;42.382;23.748;2023-10-31T13:40:05;9.68;;;4.88;;
56319;SDS011;42226;42.382;23.748;2023-10-31T13:42:38;9.32;;;4.57;;
56319;SDS011;42226;42.382;23.748;2023-10-31T13:45:15;9.93;;;4.80;;
56319;SDS011;42226;42.382;23.748;2023-10-31T13:47:44;9.52;;;4.38;;
56319;SDS011;42226;42.382;23.748;2023-10-31T13:50:28;15.02;;;5.07;;
56319;SDS011;42226;42.382;23.748;2023-10-31T13:55:47;10.60;;;4.43;;
56319;SDS011;42226;42.382;23.748;2023-10-31T13:58:22;8.10;;;4.57;;
56319;SDS011;42226;42.382;23.748;2023-10-31T14:06:27;9.40;;;4.30;;
56319;SDS011;42226;42.382;23.748;2023-10-31T14:08:58;6.78;;;4.63;;
56319;SDS011;42226;42.382;23.748;2023-10-31T14:11:33;9.15;;;4.72;;
56319;SDS011;42226;42.382;23.748;2023-10-31T14:14:03;6.22;;;4.53;;
56319;SDS011;42226;42.382;23.748;2023-10-31T14:16:38;9.15;;;4.75;;
56319;SDS011;42226;42.382;23.748;2023-10-31T14:19:18;7.20;;;4.95;;
56319;SDS011;42226;42.382;23.748;2023-10-31T14:21:47;20.40;;;5.85;;
56319;SDS011;42226;42.382;23.748;2023-10-31T14:24:17;9.38;;;4.28;;
56319;SDS011;42226;42.382;23.748;2023-10-31T14:26:47;17.38;;;5.05;;
56319;SDS011;42226;42.382;23.748;2023-10-31T14:29:19;14.10;;;4.78;;
56319;SDS011;42226;42.382;23.748;2023-10-31T14:34:28;7.70;;;4.30;;
56319;SDS011;42226;42.382;23.748;2023-10-31T14:36:56;5.95;;;4.28;;
56319;SDS011;42226;42.382;23.748;2023-10-31T14:39:26;6.97;;;4.13;;
56319;SDS011;42226;42.382;23.748;2023-10-31T14:41:56;5.90;;;4.32;;
56319;SDS011;42226;42.382;23.748;2023-10-31T14:44:25;7.70;;;4.70;;
56319;SDS011;42226;42.382;23.748;2023-10-31T14:46:55;12.85;;;5.18;;
56319;SDS011;42226;42.382;23.748;2023-10-31T14:49:23;8.82;;;4.70;;
56319;SDS011;42226;42.382;23.748;2023-10-31T14:51:54;7.55;;;4.78;;
56319;SDS011;42226;42.382;23.748;2023-10-31T14:57:11;17.58;;;5.68;;
56319;SDS011;42226;42.382;23.748;2023-10-31T15:02:41;16.15;;;5.90;;
56319;SDS011;42226;42.382;23.748;2023-10-31T15:07:57;10.13;;;5.22;;
56319;SDS011;42226;42.382;23.748;2023-10-31T15:10:32;8.43;;;4.70;;
56319;SDS011;42226;42.382;23.748;2023-10-31T15:13:02;27.67;;;6.57;;
56319;SDS011;42226;42.382;23.748;2023-10-31T15:15:30;12.93;;;5.30;;
56319;SDS011;42226;42.382;23.748;2023-10-31T15:18:00;7.88;;;4.82;;
56319;SDS011;42226;42.382;23.748;2023-10-31T15:20:31;9.23;;;4.65;;
56319;SDS011;42226;42.382;23.748;2023-10-31T15:23:06;11.38;;;5.35;;
56319;SDS011;42226;42.382;23.748;2023-10-31T15:25:34;7.72;;;4.88;;
56319;SDS011;42226;42.382;23.748;2023-10-31T15:28:02;8.15;;;4.82;;
56319;SDS011;42226;42.382;23.748;2023-10-31T15:30:31;14.02;;;5.63;;
56319;SDS011;42226;42.382;23.748;2023-10-31T15:32:58;18.98;;;5.40;;
56319;SDS011;42226;42.382;23.748;2023-10-31T15:35:27;9.98;;;5.20;;
56319;SDS011;42226;42.382;23.748;2023-10-31T15:40:30;7.43;;;4.85;;
56319;SDS011;42226;42.382;23.748;2023-10-31T15:43:10;6.97;;;5.20;;
56319;SDS011;42226;42.382;23.748;2023-10-31T15:51:08;6.95;;;5.30;;
56319;SDS011;42226;42.382;23.748;2023-10-31T15:53:36;6.55;;;5.00;;
56319;SDS011;42226;42.382;23.748;2023-10-31T15:58:37;9.23;;;5.07;;
56319;SDS011;42226;42.382;23.748;2023-10-31T16:01:08;7.70;;;5.07;;
56319;SDS011;42226;42.382;23.748;2023-10-31T16:06:15;11.35;;;5.68;;
56319;SDS011;42226;42.382;23.748;2023-10-31T16:11:40;6.60;;;5.20;;
56319;SDS011;42226;42.382;23.748;2023-10-31T16:14:14;6.50;;;5.18;;
56319;SDS011;42226;42.382;23.748;2023-10-31T16:16:48;9.50;;;5.40;;
56319;SDS011;42226;42.382;23.748;2023-10-31T16:19:18;7.35;;;5.63;;
56319;SDS011;42226;42.382;23.748;2023-10-31T16:21:49;9.43;;;5.50;;
56319;SDS011;42226;42.382;23.748;2023-10-31T16:24:22;7.97;;;5.65;;
56319;SDS011;42226;42.382;23.748;2023-10-31T16:26:50;9.68;;;5.60;;
56319;SDS011;42226;42.382;23.748;2023-10-31T16:32:00;9.02;;;5.80;;
56319;SDS011;42226;42.382;23.748;2023-10-31T16:34:34;10.15;;;6.07;;
56319;SDS011;42226;42.382;23.748;2023-10-31T16:42:09;10.95;;;5.65;;
56319;SDS011;42226;42.382;23.748;2023-10-31T16:50:10;7.25;;;5.55;;
56319;SDS011;42226;42.382;23.748;2023-10-31T16:52:46;8.27;;;5.80;;
56319;SDS011;42226;42.382;23.748;2023-10-31T16:55:16;8.55;;;5.55;;
56319;SDS011;42226;42.382;23.748;2023-10-31T17:03:15;12.00;;;6.18;;
56319;SDS011;42226;42.382;23.748;2023-10-31T17:05:43;9.38;;;6.05;;
56319;SDS011;42226;42.382;23.748;2023-10-31T17:08:12;9.23;;;5.80;;
56319;SDS011;42226;42.382;23.748;2023-10-31T17:10:50;7.43;;;5.60;;
56319;SDS011;42226;42.382;23.748;2023-10-31T17:18:25;8.07;;;6.03;;
56319;SDS011;42226;42.382;23.748;2023-10-31T17:20:55;7.32;;;5.80;;
56319;SDS011;42226;42.382;23.748;2023-10-31T17:23:25;12.30;;;6.47;;
56319;SDS011;42226;42.382;23.748;2023-10-31T17:26:00;10.20;;;5.75;;
56319;SDS011;42226;42.382;23.748;2023-10-31T17:34:16;8.45;;;6.38;;
56319;SDS011;42226;42.382;23.748;2023-10-31T17:39:36;8.63;;;6.40;;
56319;SDS011;42226;42.382;23.748;2023-10-31T17:42:16;11.35;;;6.10;;
56319;SDS011;42226;42.382;23.748;2023-10-31T17:44:44;8.88;;;6.25;;
56319;SDS011;42226;42.382;23.748;2023-10-31T17:47:18;10.85;;;5.97;;
56319;SDS011;42226;42.382;23.748;2023-10-31T17:52:22;6.63;;;5.90;;
56319;SDS011;42226;42.382;23.748;2023-10-31T17:55:12;11.20;;;6.28;;
56319;SDS011;42226;42.382;23.748;2023-10-31T18:02:55;8.93;;;6.43;;
56319;SDS011;42226;42.382;23.748;2023-10-31T18:05:23;9.18;;;6.32;;
56319;SDS011;42226;42.382;23.748;2023-10-31T18:07:58;10.02;;;5.97;;
56319;SDS011;42226;42.382;23.748;2023-10-31T18:10:34;6.72;;;5.97;;
56319;SDS011;42226;42.382;23.748;2023-10-31T18:13:05;11.68;;;6.13;;
56319;SDS011;42226;42.382;23.748;2023-10-31T18:18:06;7.30;;;6.10;;
56319;SDS011;42226;42.382;23.748;2023-10-31T18:23:07;7.57;;;6.32;;
56319;SDS011;42226;42.382;23.748;2023-10-31T18:25:41;10.65;;;6.57;;
56319;SDS011;42226;42.382;23.748;2023-10-31T18:31:19;8.90;;;6.35;;
56319;SDS011;42226;42.382;23.748;2023-10-31T18:33:48;8.80;;;6.32;;
56319;SDS011;42226;42.382;23.748;2023-10-31T18:36:18;9.25;;;6.43;;
56319;SDS011;42226;42.382;23.748;2023-10-31T18:38:54;8.00;;;6.40;;
56319;SDS011;42226;42.382;23.748;2023-10-31T18:41:23;8.48;;;5.90;;
56319;SDS011;42226;42.382;23.748;2023-10-31T18:46:40;10.32;;;6.07;;
56319;SDS011;42226;42.382;23.748;2023-10-31T18:51:53;8.07;;;6.20;;
56319;SDS011;42226;42.382;23.748;2023-10-31T18:54:26;10.90;;;6.20;;
56319;SDS011;42226;42.382;23.748;2023-10-31T18:59:42;11.75;;;5.82;;
56319;SDS011;42226;42.382;23.748;2023-10-31T19:02:09;9.00;;;6.25;;
56319;SDS011;42226;42.382;23.748;2023-10-31T19:04:39;11.18;;;5.93;;
56319;SDS011;42226;42.382;23.748;2023-10-31T19:12:27;9.27;;;6.07;;
56319;SDS011;42226;42.382;23.748;2023-10-31T19:15:10;10.25;;;6.28;;
56319;SDS011;42226;42.382;23.748;2023-10-31T19:17:38;10.38;;;6.78;;
56319;SDS011;42226;42.382;23.748;2023-10-31T19:23:07;12.93;;;6.32;;
56319;SDS011;42226;42.382;23.748;2023-10-31T19:25:47;10.00;;;6.20;;
56319;SDS011;42226;42.382;23.748;2023-10-31T19:28:16;6.88;;;5.78;;
56319;SDS011;42226;42.382;23.748;2023-10-31T19:36:07;7.40;;;5.60;;
56319;SDS011;42226;42.382;23.748;2023-10-31T19:38:36;10.45;;;6.03;;
56319;SDS011;42226;42.382;23.748;2023-10-31T19:41:16;10.98;;;6.63;;
56319;SDS011;42226;42.382;23.748;2023-10-31T19:43:50;9.52;;;6.10;;
56319;SDS011;42226;42.382;23.748;2023-10-31T19:46:22;9.63;;;6.65;;
56319;SDS011;42226;42.382;23.748;2023-10-31T19:48:52;8.90;;;5.88;;
56319;SDS011;42226;42.382;23.748;2023-10-31T19:54:07;9.63;;;6.47;;
56319;SDS011;42226;42.382;23.748;2023-10-31T19:56:35;12.55;;;6.13;;
56319;SDS011;42226;42.382;23.748;2023-10-31T19:59:03;9.88;;;6.55;;
56319;SDS011;42226;42.382;23.748;2023-10-31T20:04:06;17.95;;;6.40;;
56319;SDS011;42226;42.382;23.748;2023-10-31T20:09:09;8.27;;;6.07;;
56319;SDS011;42226;42.382;23.748;2023-10-31T20:11:39;6.80;;;5.55;;
56319;SDS011;42226;42.382;23.748;2023-10-31T20:16:40;11.55;;;6.22;;
56319;SDS011;42226;42.382;23.748;2023-10-31T20:21:59;8.32;;;5.93;;
56319;SDS011;42226;42.382;23.748;2023-10-31T20:27:34;10.27;;;5.90;;
56319;SDS011;42226;42.382;23.748;2023-10-31T20:30:03;7.85;;;6.22;;
56319;SDS011;42226;42.382;23.748;2023-10-31T20:32:33;6.45;;;5.28;;
56319;SDS011;42226;42.382;23.748;2023-10-31T20:35:05;7.95;;;5.90;;
56319;SDS011;42226;42.382;23.748;2023-10-31T20:37:44;9.13;;;6.40;;
56319;SDS011;42226;42.382;23.748;2023-10-31T20:40:14;7.45;;;5.50;;
56319;SDS011;42226;42.382;23.748;2023-10-31T20:42:48;7.78;;;5.50;;
56319;SDS011;42226;42.382;23.748;2023-10-31T20:45:16;9.18;;;5.55;;